createdAt,value
2017-10-08T00:04:28.986Z,8.40
2017-10-08T00:09:30.047Z,8.40
2017-10-08T00:14:31.107Z,8.40
2017-10-08T00:19:32.190Z,8.30
2017-10-08T00:24:33.258Z,8.40
2017-10-08T00:29:34.329Z,8.30
2017-10-08T00:34:35.386Z,8.20
2017-10-08T00:39:36.455Z,8.10
2017-10-08T00:44:37.557Z,8.00
2017-10-08T00:49:38.621Z,7.90
2017-10-08T00:54:40.332Z,7.90
2017-10-08T00:59:41.439Z,7.80
2017-10-08T01:04:43.258Z,7.70
2017-10-08T01:09:44.346Z,7.70
2017-10-08T01:14:45.441Z,7.70
2017-10-08T01:19:46.517Z,7.70
2017-10-08T01:24:47.611Z,7.70
2017-10-08T01:29:48.704Z,7.60
2017-10-08T01:34:50.539Z,7.70
2017-10-08T01:39:51.610Z,7.70
2017-10-08T01:44:52.665Z,7.70
2017-10-08T01:49:53.788Z,7.70
2017-10-08T01:54:54.863Z,7.70
2017-10-08T01:59:56.286Z,7.70
2017-10-08T02:04:58.106Z,7.70
2017-10-08T02:09:59.173Z,7.60
2017-10-08T02:15:00.242Z,7.60
2017-10-08T02:20:01.331Z,7.60
2017-10-08T02:25:10.205Z,7.60
2017-10-08T02:30:11.317Z,7.60
2017-10-08T02:35:12.518Z,7.50
2017-10-08T02:40:13.581Z,7.50
2017-10-08T02:45:14.644Z,7.50
2017-10-08T02:50:15.705Z,7.50
2017-10-08T02:55:16.760Z,7.50
2017-10-08T03:00:17.833Z,7.50
2017-10-08T03:05:18.892Z,7.50
2017-10-08T03:10:19.988Z,7.50
2017-10-08T03:15:21.815Z,7.60
2017-10-08T03:20:22.918Z,7.50
2017-10-08T03:25:24.745Z,7.60
2017-10-08T03:30:25.837Z,7.60
2017-10-08T03:35:26.911Z,7.60
2017-10-08T03:40:28.733Z,7.60
2017-10-08T03:45:29.793Z,7.70
2017-10-08T03:50:30.858Z,7.70
2017-10-08T03:55:31.949Z,7.70
2017-10-08T04:00:33.036Z,7.70
2017-10-08T04:05:34.885Z,7.80
2017-10-08T04:10:35.952Z,7.80
2017-10-08T04:15:37.122Z,7.80
2017-10-08T04:20:38.947Z,7.90
2017-10-08T04:25:40.017Z,7.90
2017-10-08T04:30:41.097Z,7.90
2017-10-08T04:35:42.172Z,8.00
2017-10-08T04:40:43.250Z,7.90
2017-10-08T04:45:44.290Z,8.00
2017-10-08T04:50:46.085Z,7.90
2017-10-08T04:55:47.148Z,7.80
2017-10-08T05:00:48.211Z,7.80
2017-10-08T05:05:49.290Z,7.80
2017-10-08T05:10:50.391Z,7.80
2017-10-08T05:15:51.468Z,7.70
2017-10-08T05:20:53.301Z,7.70
2017-10-08T05:25:54.393Z,7.60
2017-10-08T05:30:56.210Z,7.70
2017-10-08T05:35:57.304Z,7.70
2017-10-08T05:40:58.358Z,7.80
2017-10-08T05:45:59.417Z,7.80
2017-10-08T05:51:00.472Z,7.80
2017-10-08T05:56:01.526Z,7.90
2017-10-08T06:01:02.582Z,7.90
2017-10-08T06:06:03.656Z,8.00
2017-10-08T06:11:04.728Z,8.00
2017-10-08T06:16:06.649Z,8.10
2017-10-08T06:21:07.778Z,8.10
2017-10-08T06:26:09.570Z,8.20
2017-10-08T06:31:10.674Z,8.20
2017-10-08T06:36:12.492Z,8.30
2017-10-08T06:41:14.305Z,8.20
2017-10-08T06:46:15.374Z,8.20
2017-10-08T06:51:16.452Z,8.30
2017-10-08T06:56:17.539Z,8.40
2017-10-08T07:01:19.581Z,8.60
2017-10-08T07:06:20.693Z,8.60
2017-10-08T07:11:21.910Z,8.70
2017-10-08T07:16:23.098Z,8.70
2017-10-08T07:21:24.968Z,8.90
2017-10-08T07:26:26.029Z,8.90
2017-10-08T07:31:27.141Z,9.10
2017-10-08T07:36:28.208Z,9.00
2017-10-08T07:41:29.276Z,8.90
2017-10-08T07:46:30.353Z,9.00
2017-10-08T07:51:31.442Z,9.30
2017-10-08T07:56:32.575Z,9.70
2017-10-08T08:01:34.394Z,9.90
2017-10-08T08:06:35.451Z,9.90
2017-10-08T08:11:36.529Z,10.00
2017-10-08T08:16:37.637Z,10.00
2017-10-08T08:21:39.465Z,10.30
2017-10-08T08:26:40.518Z,10.30
2017-10-08T08:31:41.601Z,10.50
2017-10-08T08:36:42.681Z,10.50
2017-10-08T08:41:43.732Z,10.80
2017-10-08T08:46:44.779Z,11.00
2017-10-08T08:51:45.840Z,11.20
2017-10-08T08:56:47.028Z,11.30
2017-10-08T09:01:48.809Z,11.10
2017-10-08T09:06:50.653Z,11.10
2017-10-08T09:11:51.731Z,11.00
2017-10-08T09:16:52.814Z,11.10
2017-10-08T09:21:53.905Z,11.20
2017-10-08T09:26:54.991Z,11.20
2017-10-08T09:31:56.128Z,11.10
2017-10-08T09:36:57.210Z,11.30
2017-10-08T09:41:58.288Z,11.80
2017-10-08T09:47:00.065Z,12.40
2017-10-08T09:52:01.885Z,12.70
2017-10-08T09:57:02.987Z,12.60
2017-10-08T10:02:04.051Z,13.10
2017-10-08T10:07:05.870Z,12.60
2017-10-08T10:12:06.970Z,12.50
2017-10-08T10:17:08.053Z,12.70
2017-10-08T10:22:09.879Z,13.30
2017-10-08T10:27:10.965Z,13.20
2017-10-08T10:32:12.036Z,13.90
2017-10-08T10:37:13.897Z,15.40
2017-10-08T10:42:14.974Z,15.30
2017-10-08T10:47:16.801Z,15.40
2017-10-08T10:52:17.872Z,15.40
2017-10-08T10:57:19.036Z,15.30
2017-10-08T11:02:20.886Z,15.20
2017-10-08T11:07:21.961Z,15.10
2017-10-08T11:12:23.102Z,14.80
2017-10-08T11:17:24.170Z,14.30
2017-10-08T11:22:25.221Z,14.00
2017-10-08T11:27:26.286Z,14.10
2017-10-08T11:32:27.349Z,15.60
2017-10-08T11:37:28.395Z,16.10
2017-10-08T11:42:29.460Z,15.90
2017-10-08T11:47:30.507Z,15.70
2017-10-08T11:52:31.563Z,16.10
2017-10-08T11:57:32.633Z,15.80
2017-10-08T12:02:33.700Z,15.80
2017-10-08T12:07:34.786Z,15.00
2017-10-08T12:12:35.849Z,14.90
2017-10-08T12:17:36.908Z,14.50
2017-10-08T12:22:38.004Z,14.70
2017-10-08T12:27:39.052Z,15.20
2017-10-08T12:32:40.251Z,15.70
2017-10-08T12:37:41.325Z,15.50
2017-10-08T12:42:42.382Z,15.40
2017-10-08T12:47:43.463Z,14.70
2017-10-08T12:52:45.269Z,13.30
2017-10-08T12:57:46.342Z,13.30
2017-10-08T13:02:47.415Z,13.00
2017-10-08T13:07:48.581Z,12.70
2017-10-08T13:12:49.650Z,12.20
2017-10-08T13:17:50.724Z,12.10
2017-10-08T13:22:51.798Z,11.80
2017-10-08T13:28:00.415Z,12.30
2017-10-08T13:33:01.503Z,12.30
2017-10-08T13:38:03.349Z,12.70
2017-10-08T13:43:04.426Z,12.70
2017-10-08T13:48:05.496Z,12.70
2017-10-08T13:53:07.291Z,12.40
2017-10-08T13:58:08.346Z,12.40
2017-10-08T14:03:09.427Z,12.50
2017-10-08T14:08:10.501Z,12.90
2017-10-08T14:13:11.555Z,13.30
2017-10-08T14:18:12.632Z,14.20
2017-10-08T14:23:13.690Z,13.80
2017-10-08T14:28:14.749Z,13.40
2017-10-08T14:33:15.827Z,13.70
2017-10-08T14:38:17.816Z,13.70
2017-10-08T14:43:18.884Z,13.70
2017-10-08T14:48:19.975Z,13.30
2017-10-08T14:53:21.049Z,13.10
2017-10-08T14:58:22.113Z,13.00
2017-10-08T15:03:23.221Z,13.00
2017-10-08T15:08:24.297Z,12.80
2017-10-08T15:13:25.385Z,12.60
2017-10-08T15:18:26.447Z,12.60
2017-10-08T15:23:27.516Z,12.50
2017-10-08T15:28:28.594Z,12.50
2017-10-08T15:33:29.640Z,12.50
2017-10-08T15:38:30.746Z,12.40
2017-10-08T15:43:31.861Z,12.20
2017-10-08T15:48:32.961Z,12.20
2017-10-08T15:53:34.053Z,12.10
2017-10-08T15:58:35.132Z,12.00
2017-10-08T16:03:36.235Z,11.80
2017-10-08T16:08:37.325Z,11.70
2017-10-08T16:13:38.402Z,11.70
2017-10-08T16:18:39.446Z,11.70
2017-10-08T16:23:40.497Z,11.60
2017-10-08T16:28:41.552Z,11.50
2017-10-08T16:33:42.833Z,11.40
2017-10-08T16:38:43.947Z,11.30
2017-10-08T16:43:45.137Z,11.30
2017-10-08T16:48:46.194Z,11.20
2017-10-08T16:53:48.085Z,11.10
2017-10-08T16:58:49.186Z,11.10
2017-10-08T17:03:50.390Z,11.10
2017-10-08T17:08:51.456Z,11.10
2017-10-08T17:13:52.521Z,11.10
2017-10-08T17:18:53.599Z,11.10
2017-10-08T17:23:55.421Z,11.10
2017-10-08T17:28:56.499Z,11.10
2017-10-08T17:33:58.337Z,11.00
2017-10-08T17:38:59.445Z,11.00
2017-10-08T17:44:00.518Z,10.90
2017-10-08T17:49:01.610Z,10.90
2017-10-08T17:54:02.722Z,10.80
2017-10-08T17:59:03.793Z,10.60
2017-10-08T18:04:04.936Z,10.50
2017-10-08T18:09:05.996Z,10.40
2017-10-08T18:14:07.089Z,10.50
2017-10-08T18:19:08.942Z,10.60
2017-10-08T18:24:10.005Z,10.60
2017-10-08T18:29:11.099Z,10.70
2017-10-08T18:34:12.169Z,10.80
2017-10-08T18:39:13.258Z,10.80
2017-10-08T18:44:15.069Z,10.90
2017-10-08T18:49:16.901Z,10.70
2017-10-08T18:54:18.012Z,10.70
2017-10-08T18:59:19.834Z,10.60
2017-10-08T19:04:20.925Z,10.60
2017-10-08T19:09:22.010Z,10.50
2017-10-08T19:14:23.110Z,10.50
2017-10-08T19:19:24.181Z,10.50
2017-10-08T19:24:25.260Z,10.50
2017-10-08T19:29:26.345Z,10.40
2017-10-08T19:34:28.160Z,10.10
2017-10-08T19:39:29.250Z,10.00
2017-10-08T19:44:30.341Z,9.90
2017-10-08T19:49:32.157Z,9.80
2017-10-08T19:54:33.237Z,9.70
2017-10-08T19:59:34.317Z,9.70
2017-10-08T20:04:35.354Z,9.70
2017-10-08T20:09:36.453Z,9.60
2017-10-08T20:14:37.521Z,9.60
2017-10-08T20:19:38.611Z,9.60
2017-10-08T20:24:40.541Z,9.50
2017-10-08T20:29:45.457Z,9.50
2017-10-08T20:34:46.772Z,9.40
2017-10-08T20:39:50.216Z,9.30
2017-10-08T20:44:51.452Z,9.10
2017-10-08T20:49:52.533Z,9.00
2017-10-08T20:54:53.618Z,8.90
2017-10-08T20:59:54.706Z,8.80
2017-10-08T21:04:56.593Z,8.90
2017-10-08T21:09:58.450Z,8.90
2017-10-08T21:14:59.663Z,9.00
2017-10-08T21:20:01.601Z,9.10
2017-10-08T21:25:03.414Z,9.10
2017-10-08T21:30:04.746Z,9.10
2017-10-08T21:35:05.859Z,9.10
2017-10-08T21:40:06.966Z,9.20
2017-10-08T21:45:08.058Z,9.20
2017-10-08T21:50:09.133Z,9.20
2017-10-08T21:55:11.215Z,9.20
2017-10-08T22:00:12.305Z,9.20
2017-10-08T22:05:13.381Z,9.10
2017-10-08T22:10:14.485Z,9.20
2017-10-08T22:15:15.561Z,9.10
2017-10-08T22:20:16.660Z,9.10
2017-10-08T22:25:17.744Z,9.10
2017-10-08T22:30:18.876Z,9.10
2017-10-08T22:35:19.981Z,9.10
2017-10-08T22:40:21.141Z,9.10
2017-10-08T22:45:22.960Z,9.00
2017-10-08T22:50:24.781Z,9.00
2017-10-08T22:55:25.841Z,9.00
2017-10-08T23:00:26.946Z,9.00
2017-10-08T23:05:28.015Z,9.00
2017-10-08T23:10:29.848Z,8.90
2017-10-08T23:15:31.842Z,8.90
2017-10-08T23:20:32.908Z,8.90
2017-10-08T23:25:34.079Z,8.90
2017-10-08T23:30:35.892Z,8.80
2017-10-08T23:35:36.949Z,8.70
2017-10-08T23:40:38.033Z,8.80
2017-10-08T23:45:39.103Z,8.80
2017-10-08T23:50:40.181Z,8.70
2017-10-08T23:55:41.261Z,8.60
